sensor_id;sensor_type;location;lat;lon;timestamp;temperature;humidity
50586;DHT22;36542;51.700;8.846;2023-04-03T00:00:20;1.80;99.90
50586;DHT22;36542;51.700;8.846;2023-04-03T00:02:45;1.80;99.90
50586;DHT22;36542;51.700;8.846;2023-04-03T00:05:11;1.80;99.90
50586;DHT22;36542;51.700;8.846;2023-04-03T00:07:36;1.80;99.90
50586;DHT22;36542;51.700;8.846;2023-04-03T00:10:02;1.70;99.90
50586;DHT22;36542;51.700;8.846;2023-04-03T00:12:28;1.70;99.90
50586;DHT22;36542;51.700;8.846;2023-04-03T00:14:53;1.70;99.90
50586;DHT22;36542;51.700;8.846;2023-04-03T00:17:19;1.70;99.90
50586;DHT22;36542;51.700;8.846;2023-04-03T00:19:45;1.70;99.90
50586;DHT22;36542;51.700;8.846;2023-04-03T00:22:10;1.70;99.90
50586;DHT22;36542;51.700;8.846;2023-04-03T00:24:36;1.70;99.90
50586;DHT22;36542;51.700;8.846;2023-04-03T00:27:01;1.60;99.90
50586;DHT22;36542;51.700;8.846;2023-04-03T00:29:27;1.60;99.90
50586;DHT22;36542;51.700;8.846;2023-04-03T00:31:52;1.60;99.90
50586;DHT22;36542;51.700;8.846;2023-04-03T00:34:17;1.60;99.90
50586;DHT22;36542;51.700;8.846;2023-04-03T00:36:43;1.50;99.90
50586;DHT22;36542;51.700;8.846;2023-04-03T00:39:08;1.50;99.90
50586;DHT22;36542;51.700;8.846;2023-04-03T00:41:34;1.50;99.90
50586;DHT22;36542;51.700;8.846;2023-04-03T00:44:00;1.50;99.90
50586;DHT22;36542;51.700;8.846;2023-04-03T00:46:25;1.50;99.90
50586;DHT22;36542;51.700;8.846;2023-04-03T00:48:51;1.40;99.90
50586;DHT22;36542;51.700;8.846;2023-04-03T00:51:20;1.40;99.90
50586;DHT22;36542;51.700;8.846;2023-04-03T00:53:51;1.40;99.90
50586;DHT22;36542;51.700;8.846;2023-04-03T00:56:21;1.30;99.90
50586;DHT22;36542;51.700;8.846;2023-04-03T00:58:54;1.30;99.90
50586;DHT22;36542;51.700;8.846;2023-04-03T01:01:24;1.20;99.90
50586;DHT22;36542;51.700;8.846;2023-04-03T01:03:51;1.20;99.90
50586;DHT22;36542;51.700;8.846;2023-04-03T01:06:20;1.20;99.90
50586;DHT22;36542;51.700;8.846;2023-04-03T01:08:48;1.20;99.90
50586;DHT22;36542;51.700;8.846;2023-04-03T01:11:14;1.10;99.90
50586;DHT22;36542;51.700;8.846;2023-04-03T01:13:39;1.10;99.90
50586;DHT22;36542;51.700;8.846;2023-04-03T01:16:06;1.10;99.90
50586;DHT22;36542;51.700;8.846;2023-04-03T01:18:33;1.10;99.90
50586;DHT22;36542;51.700;8.846;2023-04-03T01:23:58;1.00;99.90
50586;DHT22;36542;51.700;8.846;2023-04-03T01:26:25;1.00;99.90
50586;DHT22;36542;51.700;8.846;2023-04-03T01:28:53;1.00;99.90
50586;DHT22;36542;51.700;8.846;2023-04-03T01:31:28;0.90;99.90
50586;DHT22;36542;51.700;8.846;2023-04-03T01:33:56;0.90;99.90
50586;DHT22;36542;51.700;8.846;2023-04-03T01:36:27;0.90;99.90
50586;DHT22;36542;51.700;8.846;2023-04-03T01:38:55;0.90;99.90
50586;DHT22;36542;51.700;8.846;2023-04-03T01:41:21;0.80;99.90
50586;DHT22;36542;51.700;8.846;2023-04-03T01:43:47;0.80;99.90
50586;DHT22;36542;51.700;8.846;2023-04-03T01:46:14;0.80;99.90
50586;DHT22;36542;51.700;8.846;2023-04-03T01:48:40;0.80;99.90
50586;DHT22;36542;51.700;8.846;2023-04-03T01:51:05;0.70;99.90
50586;DHT22;36542;51.700;8.846;2023-04-03T01:53:31;0.70;99.90
50586;DHT22;36542;51.700;8.846;2023-04-03T01:55:57;0.70;99.90
50586;DHT22;36542;51.700;8.846;2023-04-03T01:58:22;0.60;99.90
50586;DHT22;36542;51.700;8.846;2023-04-03T02:00:48;0.60;99.90
50586;DHT22;36542;51.700;8.846;2023-04-03T02:03:13;0.50;99.90
50586;DHT22;36542;51.700;8.846;2023-04-03T02:05:39;0.50;99.90
50586;DHT22;36542;51.700;8.846;2023-04-03T02:08:04;0.40;99.90
50586;DHT22;36542;51.700;8.846;2023-04-03T02:10:30;0.40;99.90
50586;DHT22;36542;51.700;8.846;2023-04-03T02:12:55;0.40;99.90
50586;DHT22;36542;51.700;8.846;2023-04-03T02:15:21;0.50;99.90
50586;DHT22;36542;51.700;8.846;2023-04-03T02:17:47;0.40;99.90
50586;DHT22;36542;51.700;8.846;2023-04-03T02:20:12;0.40;99.90
50586;DHT22;36542;51.700;8.846;2023-04-03T02:22:38;0.40;99.90
50586;DHT22;36542;51.700;8.846;2023-04-03T02:25:03;0.40;99.90
50586;DHT22;36542;51.700;8.846;2023-04-03T02:27:29;0.40;99.90
50586;DHT22;36542;51.700;8.846;2023-04-03T02:29:55;0.40;99.90
50586;DHT22;36542;51.700;8.846;2023-04-03T02:32:20;0.40;99.90
50586;DHT22;36542;51.700;8.846;2023-04-03T02:34:46;0.40;99.90
50586;DHT22;36542;51.700;8.846;2023-04-03T02:37:11;0.40;99.90
50586;DHT22;36542;51.700;8.846;2023-04-03T02:39:37;0.30;99.90
50586;DHT22;36542;51.700;8.846;2023-04-03T02:42:02;0.20;99.90
50586;DHT22;36542;51.700;8.846;2023-04-03T02:44:29;0.10;99.90
50586;DHT22;36542;51.700;8.846;2023-04-03T02:46:55;0.10;99.90
50586;DHT22;36542;51.700;8.846;2023-04-03T02:49:20;0.10;99.90
50586;DHT22;36542;51.700;8.846;2023-04-03T02:51:46;0.00;99.90
50586;DHT22;36542;51.700;8.846;2023-04-03T02:54:12;0.00;99.90
50586;DHT22;36542;51.700;8.846;2023-04-03T02:56:38;0.00;99.90
50586;DHT22;36542;51.700;8.846;2023-04-03T02:59:03;0.00;99.90
50586;DHT22;36542;51.700;8.846;2023-04-03T03:01:30;-0.10;99.90
50586;DHT22;36542;51.700;8.846;2023-04-03T03:03:58;-0.20;99.90
50586;DHT22;36542;51.700;8.846;2023-04-03T03:06:24;-0.30;99.90
50586;DHT22;36542;51.700;8.846;2023-04-03T03:08:50;-0.30;99.90
50586;DHT22;36542;51.700;8.846;2023-04-03T03:11:15;-0.40;99.90
50586;DHT22;36542;51.700;8.846;2023-04-03T03:13:41;-0.60;99.90
50586;DHT22;36542;51.700;8.846;2023-04-03T03:16:07;-0.60;99.90
50586;DHT22;36542;51.700;8.846;2023-04-03T03:18:33;-0.70;99.90
50586;DHT22;36542;51.700;8.846;2023-04-03T03:21:01;-0.80;99.90
50586;DHT22;36542;51.700;8.846;2023-04-03T03:23:28;-0.80;99.90
50586;DHT22;36542;51.700;8.846;2023-04-03T03:25:59;-0.70;99.90
50586;DHT22;36542;51.700;8.846;2023-04-03T03:28:25;-0.80;99.90
50586;DHT22;36542;51.700;8.846;2023-04-03T03:30:51;-0.70;99.90
50586;DHT22;36542;51.700;8.846;2023-04-03T03:33:17;-0.60;99.90
50586;DHT22;36542;51.700;8.846;2023-04-03T03:35:43;-0.50;99.90
50586;DHT22;36542;51.700;8.846;2023-04-03T03:38:09;-0.50;99.90
50586;DHT22;36542;51.700;8.846;2023-04-03T03:40:35;-0.40;99.90
50586;DHT22;36542;51.700;8.846;2023-04-03T03:43:01;-0.40;99.90
50586;DHT22;36542;51.700;8.846;2023-04-03T03:45:26;-0.40;99.90
50586;DHT22;36542;51.700;8.846;2023-04-03T03:47:52;-0.40;99.90
50586;DHT22;36542;51.700;8.846;2023-04-03T03:50:17;-0.40;99.90
50586;DHT22;36542;51.700;8.846;2023-04-03T03:52:43;-0.40;99.90
50586;DHT22;36542;51.700;8.846;2023-04-03T03:55:08;-0.30;99.90
50586;DHT22;36542;51.700;8.846;2023-04-03T03:57:34;-0.40;99.90
50586;DHT22;36542;51.700;8.846;2023-04-03T04:00:00;-0.30;99.90
50586;DHT22;36542;51.700;8.846;2023-04-03T04:02:26;-0.40;99.90
50586;DHT22;36542;51.700;8.846;2023-04-03T04:04:51;-0.40;99.90
50586;DHT22;36542;51.700;8.846;2023-04-03T04:07:17;-0.40;99.90
50586;DHT22;36542;51.700;8.846;2023-04-03T04:09:42;-0.40;99.90
50586;DHT22;36542;51.700;8.846;2023-04-03T04:12:08;-0.30;99.90
50586;DHT22;36542;51.700;8.846;2023-04-03T04:14:33;-0.30;99.90
50586;DHT22;36542;51.700;8.846;2023-04-03T04:16:59;-0.40;99.90
50586;DHT22;36542;51.700;8.846;2023-04-03T04:19:24;-0.40;99.90
50586;DHT22;36542;51.700;8.846;2023-04-03T04:21:50;-0.40;99.90
50586;DHT22;36542;51.700;8.846;2023-04-03T04:24:15;-0.50;99.90
50586;DHT22;36542;51.700;8.846;2023-04-03T04:26:41;-0.50;99.90
50586;DHT22;36542;51.700;8.846;2023-04-03T04:29:06;-0.50;99.90
50586;DHT22;36542;51.700;8.846;2023-04-03T04:31:32;-0.50;99.90
50586;DHT22;36542;51.700;8.846;2023-04-03T04:33:57;-0.60;99.90
50586;DHT22;36542;51.700;8.846;2023-04-03T04:36:22;-0.60;99.90
50586;DHT22;36542;51.700;8.846;2023-04-03T04:38:48;-0.60;99.90
50586;DHT22;36542;51.700;8.846;2023-04-03T04:41:14;-0.60;99.90
50586;DHT22;36542;51.700;8.846;2023-04-03T04:43:39;-0.60;99.90
50586;DHT22;36542;51.700;8.846;2023-04-03T04:46:07;-0.70;99.90
50586;DHT22;36542;51.700;8.846;2023-04-03T04:48:34;-0.70;99.90
50586;DHT22;36542;51.700;8.846;2023-04-03T04:51:00;-0.70;99.90
50586;DHT22;36542;51.700;8.846;2023-04-03T04:53:26;-0.80;99.90
50586;DHT22;36542;51.700;8.846;2023-04-03T04:55:52;-0.80;99.90
50586;DHT22;36542;51.700;8.846;2023-04-03T04:58:18;-0.80;99.90
50586;DHT22;36542;51.700;8.846;2023-04-03T05:00:43;-0.80;99.90
50586;DHT22;36542;51.700;8.846;2023-04-03T05:03:09;-0.70;99.90
50586;DHT22;36542;51.700;8.846;2023-04-03T05:05:35;-0.80;99.90
50586;DHT22;36542;51.700;8.846;2023-04-03T05:08:01;-0.80;99.90
50586;DHT22;36542;51.700;8.846;2023-04-03T05:10:27;-0.80;99.90
50586;DHT22;36542;51.700;8.846;2023-04-03T05:12:53;-0.80;99.90
50586;DHT22;36542;51.700;8.846;2023-04-03T05:15:18;-0.80;99.90
50586;DHT22;36542;51.700;8.846;2023-04-03T05:17:44;-0.80;99.90
50586;DHT22;36542;51.700;8.846;2023-04-03T05:20:10;-0.70;99.90
50586;DHT22;36542;51.700;8.846;2023-04-03T05:22:35;-0.70;99.90
50586;DHT22;36542;51.700;8.846;2023-04-03T05:25:01;-0.70;99.90
50586;DHT22;36542;51.700;8.846;2023-04-03T05:27:27;-0.70;99.90
50586;DHT22;36542;51.700;8.846;2023-04-03T05:29:54;-0.70;99.90
50586;DHT22;36542;51.700;8.846;2023-04-03T05:32:20;-0.60;99.90
50586;DHT22;36542;51.700;8.846;2023-04-03T05:34:46;-0.60;99.90
50586;DHT22;36542;51.700;8.846;2023-04-03T05:37:11;-0.50;99.90
50586;DHT22;36542;51.700;8.846;2023-04-03T05:39:37;-0.40;99.90
50586;DHT22;36542;51.700;8.846;2023-04-03T05:42:05;-0.40;99.90
50586;DHT22;36542;51.700;8.846;2023-04-03T05:44:31;-0.30;99.90
50586;DHT22;36542;51.700;8.846;2023-04-03T05:46:56;-0.20;99.90
50586;DHT22;36542;51.700;8.846;2023-04-03T05:49:22;-0.10;99.90
50586;DHT22;36542;51.700;8.846;2023-04-03T05:51:47;0.00;99.90
50586;DHT22;36542;51.700;8.846;2023-04-03T05:54:17;0.20;99.90
50586;DHT22;36542;51.700;8.846;2023-04-03T05:56:44;1.30;99.90
50586;DHT22;36542;51.700;8.846;2023-04-03T05:59:10;2.80;99.90
50586;DHT22;36542;51.700;8.846;2023-04-03T06:01:36;4.20;99.90
50586;DHT22;36542;51.700;8.846;2023-04-03T06:04:02;5.00;99.90
50586;DHT22;36542;51.700;8.846;2023-04-03T06:06:43;5.50;99.90
50586;DHT22;36542;51.700;8.846;2023-04-03T06:09:10;6.40;99.90
50586;DHT22;36542;51.700;8.846;2023-04-03T06:11:35;7.40;99.90
50586;DHT22;36542;51.700;8.846;2023-04-03T06:14:01;7.60;99.90
50586;DHT22;36542;51.700;8.846;2023-04-03T06:16:26;7.60;99.90
50586;DHT22;36542;51.700;8.846;2023-04-03T06:18:52;7.60;99.90
50586;DHT22;36542;51.700;8.846;2023-04-03T06:21:17;7.50;99.90
50586;DHT22;36542;51.700;8.846;2023-04-03T06:23:43;7.20;99.90
50586;DHT22;36542;51.700;8.846;2023-04-03T06:26:08;8.10;99.90
50586;DHT22;36542;51.700;8.846;2023-04-03T06:28:34;8.50;99.90
50586;DHT22;36542;51.700;8.846;2023-04-03T06:30:59;8.90;99.90
50586;DHT22;36542;51.700;8.846;2023-04-03T06:33:25;9.00;99.90
50586;DHT22;36542;51.700;8.846;2023-04-03T06:35:56;9.40;99.90
50586;DHT22;36542;51.700;8.846;2023-04-03T06:38:22;9.60;99.90
50586;DHT22;36542;51.700;8.846;2023-04-03T06:40:47;9.60;99.90
50586;DHT22;36542;51.700;8.846;2023-04-03T06:43:13;10.20;99.90
50586;DHT22;36542;51.700;8.846;2023-04-03T06:45:38;10.30;99.90
50586;DHT22;36542;51.700;8.846;2023-04-03T06:48:04;10.70;99.90
50586;DHT22;36542;51.700;8.846;2023-04-03T06:50:30;11.40;99.90
50586;DHT22;36542;51.700;8.846;2023-04-03T06:52:56;11.60;98.90
50586;DHT22;36542;51.700;8.846;2023-04-03T06:55:22;11.00;99.10
50586;DHT22;36542;51.700;8.846;2023-04-03T06:57:47;11.10;99.00
50586;DHT22;36542;51.700;8.846;2023-04-03T07:00:13;10.30;99.10
50586;DHT22;36542;51.700;8.846;2023-04-03T07:02:39;9.60;99.90
50586;DHT22;36542;51.700;8.846;2023-04-03T07:05:06;10.60;99.40
50586;DHT22;36542;51.700;8.846;2023-04-03T07:07:32;11.40;98.20
50586;DHT22;36542;51.700;8.846;2023-04-03T07:09:59;12.60;96.20
50586;DHT22;36542;51.700;8.846;2023-04-03T07:12:25;13.00;95.30
50586;DHT22;36542;51.700;8.846;2023-04-03T07:14:50;13.20;94.20
50586;DHT22;36542;51.700;8.846;2023-04-03T07:17:16;12.90;94.20
50586;DHT22;36542;51.700;8.846;2023-04-03T07:19:41;11.90;94.50
50586;DHT22;36542;51.700;8.846;2023-04-03T07:22:07;12.40;95.00
50586;DHT22;36542;51.700;8.846;2023-04-03T07:24:33;12.60;94.10
50586;DHT22;36542;51.700;8.846;2023-04-03T07:26:58;12.70;93.30
50586;DHT22;36542;51.700;8.846;2023-04-03T07:29:24;12.50;93.60
50586;DHT22;36542;51.700;8.846;2023-04-03T07:31:49;11.90;93.70
50586;DHT22;36542;51.700;8.846;2023-04-03T07:34:15;11.40;93.90
50586;DHT22;36542;51.700;8.846;2023-04-03T07:36:41;11.30;94.20
50586;DHT22;36542;51.700;8.846;2023-04-03T07:39:06;10.60;94.20
50586;DHT22;36542;51.700;8.846;2023-04-03T07:41:33;10.40;94.70
50586;DHT22;36542;51.700;8.846;2023-04-03T07:43:59;9.70;94.40
50586;DHT22;36542;51.700;8.846;2023-04-03T07:46:24;9.80;94.90
50586;DHT22;36542;51.700;8.846;2023-04-03T07:48:51;10.20;94.00
50586;DHT22;36542;51.700;8.846;2023-04-03T07:51:16;9.30;94.10
50586;DHT22;36542;51.700;8.846;2023-04-03T07:53:42;8.90;94.10
50586;DHT22;36542;51.700;8.846;2023-04-03T07:56:08;8.30;95.00
50586;DHT22;36542;51.700;8.846;2023-04-03T07:58:33;9.30;94.90
50586;DHT22;36542;51.700;8.846;2023-04-03T08:00:59;10.30;93.60
50586;DHT22;36542;51.700;8.846;2023-04-03T08:03:25;11.10;92.30
50586;DHT22;36542;51.700;8.846;2023-04-03T08:05:50;11.00;92.40
50586;DHT22;36542;51.700;8.846;2023-04-03T08:08:19;10.90;91.30
50586;DHT22;36542;51.700;8.846;2023-04-03T08:10:49;10.10;91.50
50586;DHT22;36542;51.700;8.846;2023-04-03T08:13:15;9.80;92.30
50586;DHT22;36542;51.700;8.846;2023-04-03T08:15:41;10.30;92.40
50586;DHT22;36542;51.700;8.846;2023-04-03T08:18:06;11.30;91.30
50586;DHT22;36542;51.700;8.846;2023-04-03T08:20:32;11.70;90.90
50586;DHT22;36542;51.700;8.846;2023-04-03T08:22:57;11.40;90.60
50586;DHT22;36542;51.700;8.846;2023-04-03T08:25:23;11.10;90.20
50586;DHT22;36542;51.700;8.846;2023-04-03T08:27:48;9.80;90.80
50586;DHT22;36542;51.700;8.846;2023-04-03T08:30:14;10.00;90.30
50586;DHT22;36542;51.700;8.846;2023-04-03T08:32:39;10.00;90.80
50586;DHT22;36542;51.700;8.846;2023-04-03T08:35:07;10.40;91.40
50586;DHT22;36542;51.700;8.846;2023-04-03T08:37:35;11.40;89.60
50586;DHT22;36542;51.700;8.846;2023-04-03T08:40:02;11.20;88.90
50586;DHT22;36542;51.700;8.846;2023-04-03T08:45:27;11.60;88.40
50586;DHT22;36542;51.700;8.846;2023-04-03T08:48:06;11.60;87.30
50586;DHT22;36542;51.700;8.846;2023-04-03T08:50:41;12.10;88.80
50586;DHT22;36542;51.700;8.846;2023-04-03T08:53:23;13.20;88.90
50586;DHT22;36542;51.700;8.846;2023-04-03T08:55:51;13.40;84.90
50586;DHT22;36542;51.700;8.846;2023-04-03T08:58:28;12.20;88.30
50586;DHT22;36542;51.700;8.846;2023-04-03T09:01:01;11.70;87.50
50586;DHT22;36542;51.700;8.846;2023-04-03T09:03:31;12.10;86.70
50586;DHT22;36542;51.700;8.846;2023-04-03T09:06:05;11.80;88.20
50586;DHT22;36542;51.700;8.846;2023-04-03T09:11:36;12.20;85.70
50586;DHT22;36542;51.700;8.846;2023-04-03T09:14:28;11.00;84.80
50586;DHT22;36542;51.700;8.846;2023-04-03T09:16:57;9.40;88.00
50586;DHT22;36542;51.700;8.846;2023-04-03T09:19:35;8.80;90.20
50586;DHT22;36542;51.700;8.846;2023-04-03T09:22:26;8.50;91.30
50586;DHT22;36542;51.700;8.846;2023-04-03T09:25:10;9.20;90.70
50586;DHT22;36542;51.700;8.846;2023-04-03T09:27:38;10.80;89.00
50586;DHT22;36542;51.700;8.846;2023-04-03T09:30:03;11.40;86.40
50586;DHT22;36542;51.700;8.846;2023-04-03T09:32:36;9.50;90.50
50586;DHT22;36542;51.700;8.846;2023-04-03T09:35:32;9.40;90.50
50586;DHT22;36542;51.700;8.846;2023-04-03T09:38:14;9.70;90.40
50586;DHT22;36542;51.700;8.846;2023-04-03T09:40:42;10.50;89.60
50586;DHT22;36542;51.700;8.846;2023-04-03T09:43:30;11.40;88.90
50586;DHT22;36542;51.700;8.846;2023-04-03T09:46:16;12.00;86.70
50586;DHT22;36542;51.700;8.846;2023-04-03T09:48:55;11.90;85.00
50586;DHT22;36542;51.700;8.846;2023-04-03T09:51:25;11.80;85.80
50586;DHT22;36542;51.700;8.846;2023-04-03T09:53:52;11.90;87.10
50586;DHT22;36542;51.700;8.846;2023-04-03T09:56:19;12.10;83.90
50586;DHT22;36542;51.700;8.846;2023-04-03T09:58:50;11.20;85.80
50586;DHT22;36542;51.700;8.846;2023-04-03T10:01:29;11.20;86.80
50586;DHT22;36542;51.700;8.846;2023-04-03T10:06:49;12.30;82.70
50586;DHT22;36542;51.700;8.846;2023-04-03T10:09:23;12.00;83.10
50586;DHT22;36542;51.700;8.846;2023-04-03T10:12:09;12.50;82.80
50586;DHT22;36542;51.700;8.846;2023-04-03T10:14:54;12.00;81.00
50586;DHT22;36542;51.700;8.846;2023-04-03T10:17:24;12.30;83.40
50586;DHT22;36542;51.700;8.846;2023-04-03T10:25:30;11.60;86.20
50586;DHT22;36542;51.700;8.846;2023-04-03T10:28:02;11.10;84.60
50586;DHT22;36542;51.700;8.846;2023-04-03T10:30:40;11.40;83.80
50586;DHT22;36542;51.700;8.846;2023-04-03T10:36:25;11.00;84.60
50586;DHT22;36542;51.700;8.846;2023-04-03T10:41:51;11.10;85.20
50586;DHT22;36542;51.700;8.846;2023-04-03T10:47:09;11.90;86.40
50586;DHT22;36542;51.700;8.846;2023-04-03T10:55:34;12.10;84.60
50586;DHT22;36542;51.700;8.846;2023-04-03T10:58:01;11.30;88.00
50586;DHT22;36542;51.700;8.846;2023-04-03T11:00:39;9.90;90.20
50586;DHT22;36542;51.700;8.846;2023-04-03T11:03:13;8.50;92.80
50586;DHT22;36542;51.700;8.846;2023-04-03T11:05:45;7.80;93.50
50586;DHT22;36542;51.700;8.846;2023-04-03T11:10:50;7.30;94.50
50586;DHT22;36542;51.700;8.846;2023-04-03T11:13:21;7.30;94.50
50586;DHT22;36542;51.700;8.846;2023-04-03T11:15:49;7.10;94.50
50586;DHT22;36542;51.700;8.846;2023-04-03T11:18:31;6.70;94.00
50586;DHT22;36542;51.700;8.846;2023-04-03T11:21:29;7.00;93.70
50586;DHT22;36542;51.700;8.846;2023-04-03T11:23:56;8.10;92.20
50586;DHT22;36542;51.700;8.846;2023-04-03T11:26:26;8.60;91.40
50586;DHT22;36542;51.700;8.846;2023-04-03T11:28:58;8.90;90.80
50586;DHT22;36542;51.700;8.846;2023-04-03T11:34:33;8.90;92.10
50586;DHT22;36542;51.700;8.846;2023-04-03T11:37:02;9.20;91.90
50586;DHT22;36542;51.700;8.846;2023-04-03T11:39:34;8.80;90.70
50586;DHT22;36542;51.700;8.846;2023-04-03T11:47:54;8.50;92.10
50586;DHT22;36542;51.700;8.846;2023-04-03T11:50:45;8.40;93.90
50586;DHT22;36542;51.700;8.846;2023-04-03T11:58:19;8.60;93.80
50586;DHT22;36542;51.700;8.846;2023-04-03T12:16:24;7.50;93.90
50586;DHT22;36542;51.700;8.846;2023-04-03T12:40:37;8.10;97.60
50586;DHT22;36542;51.700;8.846;2023-04-03T12:45:50;8.10;97.00
50586;DHT22;36542;51.700;8.846;2023-04-03T12:48:24;7.90;96.00
50586;DHT22;36542;51.700;8.846;2023-04-03T12:50:51;7.60;97.20
50586;DHT22;36542;51.700;8.846;2023-04-03T12:53:26;7.10;96.70
50586;DHT22;36542;51.700;8.846;2023-04-03T12:55:56;6.80;97.20
50586;DHT22;36542;51.700;8.846;2023-04-03T12:58:27;6.70;95.60
50586;DHT22;36542;51.700;8.846;2023-04-03T13:01:01;6.70;97.60
50586;DHT22;36542;51.700;8.846;2023-04-03T13:03:27;7.00;95.80
50586;DHT22;36542;51.700;8.846;2023-04-03T13:05:59;7.20;96.30
50586;DHT22;36542;51.700;8.846;2023-04-03T13:08:27;7.30;96.50
50586;DHT22;36542;51.700;8.846;2023-04-03T13:11:11;7.30;94.20
50586;DHT22;36542;51.700;8.846;2023-04-03T13:13:37;7.10;94.80
50586;DHT22;36542;51.700;8.846;2023-04-03T13:16:11;7.40;94.90
50586;DHT22;36542;51.700;8.846;2023-04-03T13:18:38;7.50;93.80
50586;DHT22;36542;51.700;8.846;2023-04-03T13:21:17;7.80;93.00
50586;DHT22;36542;51.700;8.846;2023-04-03T13:23:45;7.90;96.30
50586;DHT22;36542;51.700;8.846;2023-04-03T13:26:12;8.00;95.90
50586;DHT22;36542;51.700;8.846;2023-04-03T13:28:41;7.40;95.70
50586;DHT22;36542;51.700;8.846;2023-04-03T13:36:28;6.50;96.60
50586;DHT22;36542;51.700;8.846;2023-04-03T13:39:07;6.20;98.20
50586;DHT22;36542;51.700;8.846;2023-04-03T13:41:49;6.00;98.50
50586;DHT22;36542;51.700;8.846;2023-04-03T13:46:47;6.30;97.60
50586;DHT22;36542;51.700;8.846;2023-04-03T13:49:34;6.60;98.20
50586;DHT22;36542;51.700;8.846;2023-04-03T13:52:17;6.60;98.30
50586;DHT22;36542;51.700;8.846;2023-04-03T13:54:48;6.50;96.80
50586;DHT22;36542;51.700;8.846;2023-04-03T13:57:16;6.90;99.10
50586;DHT22;36542;51.700;8.846;2023-04-03T13:59:42;7.30;96.70
50586;DHT22;36542;51.700;8.846;2023-04-03T14:07:02;7.50;95.40
50586;DHT22;36542;51.700;8.846;2023-04-03T14:09:27;7.60;95.90
50586;DHT22;36542;51.700;8.846;2023-04-03T14:11:58;7.60;94.10
50586;DHT22;36542;51.700;8.846;2023-04-03T14:14:32;7.50;93.40
50586;DHT22;36542;51.700;8.846;2023-04-03T14:17:01;7.70;94.10
50586;DHT22;36542;51.700;8.846;2023-04-03T14:19:31;8.00;94.20
50586;DHT22;36542;51.700;8.846;2023-04-03T14:21:58;7.90;95.20
50586;DHT22;36542;51.700;8.846;2023-04-03T14:24:24;7.60;94.60
50586;DHT22;36542;51.700;8.846;2023-04-03T14:26:52;7.60;95.80
50586;DHT22;36542;51.700;8.846;2023-04-03T14:29:19;7.70;96.70
50586;DHT22;36542;51.700;8.846;2023-04-03T14:31:46;7.40;96.20
50586;DHT22;36542;51.700;8.846;2023-04-03T14:34:14;7.00;96.20
50586;DHT22;36542;51.700;8.846;2023-04-03T14:36:41;7.00;95.60
50586;DHT22;36542;51.700;8.846;2023-04-03T14:39:08;6.90;97.80
50586;DHT22;36542;51.700;8.846;2023-04-03T14:41:35;6.90;97.70
50586;DHT22;36542;51.700;8.846;2023-04-03T14:44:01;7.00;97.20
50586;DHT22;36542;51.700;8.846;2023-04-03T14:46:33;7.00;95.40
50586;DHT22;36542;51.700;8.846;2023-04-03T14:48:59;7.00;96.30
50586;DHT22;36542;51.700;8.846;2023-04-03T14:51:25;6.90;95.40
50586;DHT22;36542;51.700;8.846;2023-04-03T14:53:51;7.10;96.80
50586;DHT22;36542;51.700;8.846;2023-04-03T14:56:26;7.20;95.60
50586;DHT22;36542;51.700;8.846;2023-04-03T14:59:00;7.30;96.60
50586;DHT22;36542;51.700;8.846;2023-04-03T15:01:27;7.40;94.50
50586;DHT22;36542;51.700;8.846;2023-04-03T15:03:53;7.50;95.90
50586;DHT22;36542;51.700;8.846;2023-04-03T15:06:19;7.30;96.90
50586;DHT22;36542;51.700;8.846;2023-04-03T15:08:46;7.20;97.40
50586;DHT22;36542;51.700;8.846;2023-04-03T15:11:13;7.10;97.50
50586;DHT22;36542;51.700;8.846;2023-04-03T15:13:39;7.10;96.90
50586;DHT22;36542;51.700;8.846;2023-04-03T15:16:06;6.80;97.40
50586;DHT22;36542;51.700;8.846;2023-04-03T15:18:38;6.90;97.00
50586;DHT22;36542;51.700;8.846;2023-04-03T15:21:04;6.60;96.40
50586;DHT22;36542;51.700;8.846;2023-04-03T15:23:30;6.40;98.10
50586;DHT22;36542;51.700;8.846;2023-04-03T15:25:56;6.20;97.00
50586;DHT22;36542;51.700;8.846;2023-04-03T15:28:38;6.20;96.90
50586;DHT22;36542;51.700;8.846;2023-04-03T15:31:05;6.40;97.10
50586;DHT22;36542;51.700;8.846;2023-04-03T15:33:31;6.80;97.20
50586;DHT22;36542;51.700;8.846;2023-04-03T15:35:58;7.10;97.50
50586;DHT22;36542;51.700;8.846;2023-04-03T15:38:23;6.90;97.20
50586;DHT22;36542;51.700;8.846;2023-04-03T15:40:49;6.70;99.40
50586;DHT22;36542;51.700;8.846;2023-04-03T15:43:15;6.40;96.70
50586;DHT22;36542;51.700;8.846;2023-04-03T15:45:41;6.10;97.50
50586;DHT22;36542;51.700;8.846;2023-04-03T15:48:08;5.90;99.70
50586;DHT22;36542;51.700;8.846;2023-04-03T15:50:34;6.00;98.70
50586;DHT22;36542;51.700;8.846;2023-04-03T15:53:00;6.20;97.20
50586;DHT22;36542;51.700;8.846;2023-04-03T15:55:28;6.50;98.10
50586;DHT22;36542;51.700;8.846;2023-04-03T15:57:54;6.50;97.60
50586;DHT22;36542;51.700;8.846;2023-04-03T16:00:22;6.50;97.60
50586;DHT22;36542;51.700;8.846;2023-04-03T16:02:50;6.60;97.70
50586;DHT22;36542;51.700;8.846;2023-04-03T16:05:17;6.60;96.30
50586;DHT22;36542;51.700;8.846;2023-04-03T16:07:43;6.50;97.60
50586;DHT22;36542;51.700;8.846;2023-04-03T16:10:10;6.50;96.90
50586;DHT22;36542;51.700;8.846;2023-04-03T16:12:36;6.30;96.10
50586;DHT22;36542;51.700;8.846;2023-04-03T16:15:02;6.20;96.40
50586;DHT22;36542;51.700;8.846;2023-04-03T16:17:27;6.00;95.60
50586;DHT22;36542;51.700;8.846;2023-04-03T16:19:54;6.00;96.40
50586;DHT22;36542;51.700;8.846;2023-04-03T16:22:21;6.00;96.60
50586;DHT22;36542;51.700;8.846;2023-04-03T16:24:49;6.10;98.80
50586;DHT22;36542;51.700;8.846;2023-04-03T16:27:15;6.00;96.00
50586;DHT22;36542;51.700;8.846;2023-04-03T16:29:40;5.90;96.80
50586;DHT22;36542;51.700;8.846;2023-04-03T16:32:06;5.80;97.90
50586;DHT22;36542;51.700;8.846;2023-04-03T16:34:32;5.70;97.20
50586;DHT22;36542;51.700;8.846;2023-04-03T16:36:58;5.70;97.90
50586;DHT22;36542;51.700;8.846;2023-04-03T16:39:23;5.70;98.20
50586;DHT22;36542;51.700;8.846;2023-04-03T16:41:49;5.90;97.60
50586;DHT22;36542;51.700;8.846;2023-04-03T16:44:15;5.90;96.70
50586;DHT22;36542;51.700;8.846;2023-04-03T16:46:40;5.90;98.30
50586;DHT22;36542;51.700;8.846;2023-04-03T16:49:06;5.90;97.80
50586;DHT22;36542;51.700;8.846;2023-04-03T16:51:31;5.80;96.20
50586;DHT22;36542;51.700;8.846;2023-04-03T16:53:57;5.70;96.30
50586;DHT22;36542;51.700;8.846;2023-04-03T16:56:23;5.60;96.00
50586;DHT22;36542;51.700;8.846;2023-04-03T16:58:49;5.60;97.10
50586;DHT22;36542;51.700;8.846;2023-04-03T17:01:17;5.70;97.20
50586;DHT22;36542;51.700;8.846;2023-04-03T17:03:43;5.70;97.40
50586;DHT22;36542;51.700;8.846;2023-04-03T17:06:11;5.60;98.20
50586;DHT22;36542;51.700;8.846;2023-04-03T17:08:42;5.60;98.30
50586;DHT22;36542;51.700;8.846;2023-04-03T17:11:08;5.60;99.40
50586;DHT22;36542;51.700;8.846;2023-04-03T17:13:33;5.60;99.90
50586;DHT22;36542;51.700;8.846;2023-04-03T17:16:00;5.50;99.60
50586;DHT22;36542;51.700;8.846;2023-04-03T17:18:28;5.40;99.00
50586;DHT22;36542;51.700;8.846;2023-04-03T17:20:54;5.30;99.90
50586;DHT22;36542;51.700;8.846;2023-04-03T17:23:20;5.20;99.00
50586;DHT22;36542;51.700;8.846;2023-04-03T17:25:45;5.20;99.30